sensor_id;sensor_type;location;lat;lon;timestamp;P1;durP1;ratioP1;P2;durP2;ratioP2
67665;SDS011;54448;51.472;-2.574;2024-03-25T00:00:04;0.10;;;0.10;;
67665;SDS011;54448;51.472;-2.574;2024-03-25T00:02:30;0.63;;;0.63;;
67665;SDS011;54448;51.472;-2.574;2024-03-25T00:04:56;0.20;;;0.20;;
67665;SDS011;54448;51.472;-2.574;2024-03-25T00:07:22;0.10;;;0.10;;
67665;SDS011;54448;51.472;-2.574;2024-03-25T00:09:47;0.20;;;0.20;;
67665;SDS011;54448;51.472;-2.574;2024-03-25T00:12:14;3.35;;;1.90;;
67665;SDS011;54448;51.472;-2.574;2024-03-25T00:14:39;0.32;;;0.20;;
67665;SDS011;54448;51.472;-2.574;2024-03-25T00:17:05;0.22;;;0.20;;
67665;SDS011;54448;51.472;-2.574;2024-03-25T00:19:31;0.22;;;0.22;;
67665;SDS011;54448;51.472;-2.574;2024-03-25T00:21:57;0.15;;;0.15;;
67665;SDS011;54448;51.472;-2.574;2024-03-25T00:24:24;0.57;;;0.28;;
67665;SDS011;54448;51.472;-2.574;2024-03-25T00:26:49;0.82;;;0.82;;
67665;SDS011;54448;51.472;-2.574;2024-03-25T00:29:15;20.33;;;0.80;;
67665;SDS011;54448;51.472;-2.574;2024-03-25T00:31:41;3.00;;;1.45;;
67665;SDS011;54448;51.472;-2.574;2024-03-25T00:34:06;0.00;;;0.00;;
67665;SDS011;54448;51.472;-2.574;2024-03-25T00:36:32;0.52;;;0.52;;
67665;SDS011;54448;51.472;-2.574;2024-03-25T00:39:00;0.10;;;0.10;;
67665;SDS011;54448;51.472;-2.574;2024-03-25T00:41:34;0.10;;;0.10;;
67665;SDS011;54448;51.472;-2.574;2024-03-25T00:44:00;0.75;;;0.70;;
67665;SDS011;54448;51.472;-2.574;2024-03-25T00:46:26;1.83;;;1.23;;
67665;SDS011;54448;51.472;-2.574;2024-03-25T00:48:51;0.00;;;0.00;;
67665;SDS011;54448;51.472;-2.574;2024-03-25T00:51:16;6.68;;;0.40;;
67665;SDS011;54448;51.472;-2.574;2024-03-25T00:53:42;0.22;;;0.20;;
67665;SDS011;54448;51.472;-2.574;2024-03-25T00:56:08;0.88;;;0.55;;
67665;SDS011;54448;51.472;-2.574;2024-03-25T00:58:33;0.73;;;0.70;;
67665;SDS011;54448;51.472;-2.574;2024-03-25T01:00:59;3.13;;;0.98;;
67665;SDS011;54448;51.472;-2.574;2024-03-25T01:03:24;0.30;;;0.22;;
67665;SDS011;54448;51.472;-2.574;2024-03-25T01:05:50;0.93;;;0.57;;
67665;SDS011;54448;51.472;-2.574;2024-03-25T01:08:15;7.57;;;0.65;;
67665;SDS011;54448;51.472;-2.574;2024-03-25T01:10:40;2.00;;;1.10;;
67665;SDS011;54448;51.472;-2.574;2024-03-25T01:13:06;0.10;;;0.10;;
67665;SDS011;54448;51.472;-2.574;2024-03-25T01:15:31;0.00;;;0.00;;
67665;SDS011;54448;51.472;-2.574;2024-03-25T01:17:57;2.28;;;0.68;;
67665;SDS011;54448;51.472;-2.574;2024-03-25T01:20:22;1.70;;;0.43;;
67665;SDS011;54448;51.472;-2.574;2024-03-25T01:22:47;3.50;;;0.98;;
67665;SDS011;54448;51.472;-2.574;2024-03-25T01:25:13;0.15;;;0.15;;
67665;SDS011;54448;51.472;-2.574;2024-03-25T01:27:38;4.38;;;0.90;;
67665;SDS011;54448;51.472;-2.574;2024-03-25T01:30:04;0.10;;;0.10;;
67665;SDS011;54448;51.472;-2.574;2024-03-25T01:32:30;0.22;;;0.22;;
67665;SDS011;54448;51.472;-2.574;2024-03-25T01:34:55;0.80;;;0.57;;
67665;SDS011;54448;51.472;-2.574;2024-03-25T01:37:21;0.63;;;0.52;;
67665;SDS011;54448;51.472;-2.574;2024-03-25T01:39:46;2.75;;;1.23;;
67665;SDS011;54448;51.472;-2.574;2024-03-25T01:42:11;1.20;;;0.60;;
67665;SDS011;54448;51.472;-2.574;2024-03-25T01:44:38;0.75;;;0.43;;
67665;SDS011;54448;51.472;-2.574;2024-03-25T01:47:04;0.08;;;0.08;;
67665;SDS011;54448;51.472;-2.574;2024-03-25T01:49:29;0.30;;;0.20;;
67665;SDS011;54448;51.472;-2.574;2024-03-25T01:51:55;0.20;;;0.20;;
67665;SDS011;54448;51.472;-2.574;2024-03-25T01:54:20;0.45;;;0.45;;
67665;SDS011;54448;51.472;-2.574;2024-03-25T01:56:46;7.05;;;0.90;;
67665;SDS011;54448;51.472;-2.574;2024-03-25T01:59:12;0.57;;;0.52;;
67665;SDS011;54448;51.472;-2.574;2024-03-25T02:01:38;4.65;;;1.63;;
67665;SDS011;54448;51.472;-2.574;2024-03-25T02:04:04;5.75;;;1.52;;
67665;SDS011;54448;51.472;-2.574;2024-03-25T02:06:29;0.93;;;0.80;;
67665;SDS011;54448;51.472;-2.574;2024-03-25T02:08:56;0.00;;;0.00;;
67665;SDS011;54448;51.472;-2.574;2024-03-25T02:11:22;0.63;;;0.22;;
67665;SDS011;54448;51.472;-2.574;2024-03-25T02:13:48;1.80;;;1.10;;
67665;SDS011;54448;51.472;-2.574;2024-03-25T02:16:15;0.10;;;0.10;;
67665;SDS011;54448;51.472;-2.574;2024-03-25T02:18:40;0.17;;;0.17;;
67665;SDS011;54448;51.472;-2.574;2024-03-25T02:21:08;8.75;;;1.40;;
67665;SDS011;54448;51.472;-2.574;2024-03-25T02:23:34;0.00;;;0.00;;
67665;SDS011;54448;51.472;-2.574;2024-03-25T02:26:00;0.20;;;0.20;;
67665;SDS011;54448;51.472;-2.574;2024-03-25T02:28:25;1.48;;;0.93;;
67665;SDS011;54448;51.472;-2.574;2024-03-25T02:30:50;0.28;;;0.20;;
67665;SDS011;54448;51.472;-2.574;2024-03-25T02:33:16;0.35;;;0.35;;
67665;SDS011;54448;51.472;-2.574;2024-03-25T02:35:42;1.95;;;0.20;;
67665;SDS011;54448;51.472;-2.574;2024-03-25T02:38:08;1.40;;;1.30;;
67665;SDS011;54448;51.472;-2.574;2024-03-25T02:40:34;1.80;;;0.77;;
67665;SDS011;54448;51.472;-2.574;2024-03-25T02:43:00;0.55;;;0.55;;
67665;SDS011;54448;51.472;-2.574;2024-03-25T02:45:25;0.85;;;0.40;;
67665;SDS011;54448;51.472;-2.574;2024-03-25T02:47:51;0.73;;;0.50;;
67665;SDS011;54448;51.472;-2.574;2024-03-25T02:50:16;0.35;;;0.20;;
67665;SDS011;54448;51.472;-2.574;2024-03-25T02:52:42;0.15;;;0.15;;
67665;SDS011;54448;51.472;-2.574;2024-03-25T02:55:07;0.10;;;0.10;;
67665;SDS011;54448;51.472;-2.574;2024-03-25T02:57:33;1.75;;;0.90;;
67665;SDS011;54448;51.472;-2.574;2024-03-25T02:59:58;2.33;;;0.63;;
67665;SDS011;54448;51.472;-2.574;2024-03-25T03:02:24;0.10;;;0.10;;
67665;SDS011;54448;51.472;-2.574;2024-03-25T03:04:49;0.45;;;0.43;;
67665;SDS011;54448;51.472;-2.574;2024-03-25T03:07:14;1.02;;;0.45;;
67665;SDS011;54448;51.472;-2.574;2024-03-25T03:09:40;1.35;;;0.82;;
67665;SDS011;54448;51.472;-2.574;2024-03-25T03:12:05;5.38;;;0.75;;
67665;SDS011;54448;51.472;-2.574;2024-03-25T03:14:31;1.17;;;0.98;;
67665;SDS011;54448;51.472;-2.574;2024-03-25T03:16:56;0.20;;;0.20;;
67665;SDS011;54448;51.472;-2.574;2024-03-25T03:19:25;0.00;;;0.00;;
67665;SDS011;54448;51.472;-2.574;2024-03-25T03:21:51;14.00;;;1.23;;
67665;SDS011;54448;51.472;-2.574;2024-03-25T03:24:17;14.27;;;1.15;;
67665;SDS011;54448;51.472;-2.574;2024-03-25T03:26:43;0.40;;;0.40;;
67665;SDS011;54448;51.472;-2.574;2024-03-25T03:29:09;5.05;;;1.23;;
67665;SDS011;54448;51.472;-2.574;2024-03-25T03:31:34;0.10;;;0.10;;
67665;SDS011;54448;51.472;-2.574;2024-03-25T03:34:00;2.45;;;1.95;;
67665;SDS011;54448;51.472;-2.574;2024-03-25T03:36:25;3.25;;;0.55;;
67665;SDS011;54448;51.472;-2.574;2024-03-25T03:38:51;0.10;;;0.10;;
67665;SDS011;54448;51.472;-2.574;2024-03-25T03:41:16;0.00;;;0.00;;
67665;SDS011;54448;51.472;-2.574;2024-03-25T03:43:42;3.67;;;1.65;;
67665;SDS011;54448;51.472;-2.574;2024-03-25T03:46:07;0.30;;;0.10;;
67665;SDS011;54448;51.472;-2.574;2024-03-25T03:48:33;0.25;;;0.22;;
67665;SDS011;54448;51.472;-2.574;2024-03-25T03:50:58;0.57;;;0.47;;
67665;SDS011;54448;51.472;-2.574;2024-03-25T03:53:24;1.80;;;0.70;;
67665;SDS011;54448;51.472;-2.574;2024-03-25T03:55:53;0.10;;;0.10;;
67665;SDS011;54448;51.472;-2.574;2024-03-25T03:58:27;0.10;;;0.10;;
67665;SDS011;54448;51.472;-2.574;2024-03-25T04:00:52;5.95;;;1.75;;
67665;SDS011;54448;51.472;-2.574;2024-03-25T04:03:17;1.60;;;1.05;;
67665;SDS011;54448;51.472;-2.574;2024-03-25T04:05:44;0.75;;;0.70;;
67665;SDS011;54448;51.472;-2.574;2024-03-25T04:08:09;1.35;;;0.82;;
67665;SDS011;54448;51.472;-2.574;2024-03-25T04:10:35;0.88;;;0.30;;
67665;SDS011;54448;51.472;-2.574;2024-03-25T04:13:01;0.55;;;0.52;;
67665;SDS011;54448;51.472;-2.574;2024-03-25T04:15:27;0.57;;;0.52;;
67665;SDS011;54448;51.472;-2.574;2024-03-25T04:17:52;0.45;;;0.43;;
67665;SDS011;54448;51.472;-2.574;2024-03-25T04:20:18;0.43;;;0.10;;
67665;SDS011;54448;51.472;-2.574;2024-03-25T04:22:44;0.20;;;0.20;;
67665;SDS011;54448;51.472;-2.574;2024-03-25T04:25:11;0.00;;;0.00;;
67665;SDS011;54448;51.472;-2.574;2024-03-25T04:27:40;1.30;;;0.88;;
67665;SDS011;54448;51.472;-2.574;2024-03-25T04:30:08;12.23;;;2.40;;
67665;SDS011;54448;51.472;-2.574;2024-03-25T04:32:35;2.00;;;1.05;;
67665;SDS011;54448;51.472;-2.574;2024-03-25T04:35:01;0.17;;;0.17;;
67665;SDS011;54448;51.472;-2.574;2024-03-25T04:37:27;3.88;;;0.95;;
67665;SDS011;54448;51.472;-2.574;2024-03-25T04:39:56;3.92;;;0.68;;
67665;SDS011;54448;51.472;-2.574;2024-03-25T04:42:21;7.90;;;1.73;;
67665;SDS011;54448;51.472;-2.574;2024-03-25T04:44:47;10.65;;;1.83;;
67665;SDS011;54448;51.472;-2.574;2024-03-25T04:47:13;3.22;;;1.05;;
67665;SDS011;54448;51.472;-2.574;2024-03-25T04:49:40;0.22;;;0.22;;
67665;SDS011;54448;51.472;-2.574;2024-03-25T04:52:06;5.28;;;1.33;;
67665;SDS011;54448;51.472;-2.574;2024-03-25T04:54:31;3.55;;;1.80;;
67665;SDS011;54448;51.472;-2.574;2024-03-25T04:56:56;0.43;;;0.40;;
67665;SDS011;54448;51.472;-2.574;2024-03-25T04:59:22;3.97;;;1.60;;
67665;SDS011;54448;51.472;-2.574;2024-03-25T05:01:47;1.17;;;0.85;;
67665;SDS011;54448;51.472;-2.574;2024-03-25T05:04:13;6.13;;;1.85;;
67665;SDS011;54448;51.472;-2.574;2024-03-25T05:06:38;2.38;;;1.70;;
67665;SDS011;54448;51.472;-2.574;2024-03-25T05:09:04;0.73;;;0.43;;
67665;SDS011;54448;51.472;-2.574;2024-03-25T05:11:31;5.43;;;2.15;;
67665;SDS011;54448;51.472;-2.574;2024-03-25T05:13:57;3.90;;;1.38;;
67665;SDS011;54448;51.472;-2.574;2024-03-25T05:16:22;2.42;;;1.25;;
67665;SDS011;54448;51.472;-2.574;2024-03-25T05:18:47;2.70;;;1.67;;
67665;SDS011;54448;51.472;-2.574;2024-03-25T05:21:13;4.10;;;2.00;;
67665;SDS011;54448;51.472;-2.574;2024-03-25T05:23:38;6.40;;;2.03;;
67665;SDS011;54448;51.472;-2.574;2024-03-25T05:26:04;2.53;;;0.93;;
67665;SDS011;54448;51.472;-2.574;2024-03-25T05:28:29;8.20;;;3.22;;
67665;SDS011;54448;51.472;-2.574;2024-03-25T05:30:54;3.75;;;1.75;;
67665;SDS011;54448;51.472;-2.574;2024-03-25T05:33:20;10.98;;;3.75;;
67665;SDS011;54448;51.472;-2.574;2024-03-25T05:35:45;0.32;;;0.30;;
67665;SDS011;54448;51.472;-2.574;2024-03-25T05:38:10;9.65;;;2.65;;
67665;SDS011;54448;51.472;-2.574;2024-03-25T05:40:36;14.07;;;1.30;;
67665;SDS011;54448;51.472;-2.574;2024-03-25T05:43:01;2.30;;;1.58;;
67665;SDS011;54448;51.472;-2.574;2024-03-25T05:45:27;7.43;;;2.90;;
67665;SDS011;54448;51.472;-2.574;2024-03-25T05:47:52;3.50;;;2.15;;
67665;SDS011;54448;51.472;-2.574;2024-03-25T05:50:18;3.17;;;1.63;;
67665;SDS011;54448;51.472;-2.574;2024-03-25T05:52:43;6.30;;;3.00;;
67665;SDS011;54448;51.472;-2.574;2024-03-25T05:55:09;4.90;;;1.98;;
67665;SDS011;54448;51.472;-2.574;2024-03-25T05:57:37;3.83;;;1.80;;
67665;SDS011;54448;51.472;-2.574;2024-03-25T06:00:03;3.80;;;2.10;;
67665;SDS011;54448;51.472;-2.574;2024-03-25T06:02:28;12.07;;;2.65;;
67665;SDS011;54448;51.472;-2.574;2024-03-25T06:04:55;8.27;;;1.85;;
67665;SDS011;54448;51.472;-2.574;2024-03-25T06:07:21;2.58;;;1.23;;
67665;SDS011;54448;51.472;-2.574;2024-03-25T06:09:47;14.27;;;1.33;;
67665;SDS011;54448;51.472;-2.574;2024-03-25T06:12:12;1.50;;;1.05;;
67665;SDS011;54448;51.472;-2.574;2024-03-25T06:14:38;9.00;;;3.10;;
67665;SDS011;54448;51.472;-2.574;2024-03-25T06:17:03;2.83;;;1.27;;
67665;SDS011;54448;51.472;-2.574;2024-03-25T06:19:29;1.92;;;1.23;;
67665;SDS011;54448;51.472;-2.574;2024-03-25T06:21:54;3.40;;;1.35;;
67665;SDS011;54448;51.472;-2.574;2024-03-25T06:24:20;3.10;;;1.58;;
67665;SDS011;54448;51.472;-2.574;2024-03-25T06:26:45;0.17;;;0.08;;
67665;SDS011;54448;51.472;-2.574;2024-03-25T06:29:11;6.72;;;1.00;;
67665;SDS011;54448;51.472;-2.574;2024-03-25T06:31:36;0.40;;;0.40;;
67665;SDS011;54448;51.472;-2.574;2024-03-25T06:36:48;2.58;;;1.27;;
67665;SDS011;54448;51.472;-2.574;2024-03-25T06:39:14;1.08;;;0.52;;
67665;SDS011;54448;51.472;-2.574;2024-03-25T06:41:40;9.57;;;2.08;;
67665;SDS011;54448;51.472;-2.574;2024-03-25T06:44:05;0.43;;;0.43;;
67665;SDS011;54448;51.472;-2.574;2024-03-25T06:46:31;1.38;;;0.50;;
67665;SDS011;54448;51.472;-2.574;2024-03-25T06:48:57;0.45;;;0.28;;
67665;SDS011;54448;51.472;-2.574;2024-03-25T06:51:22;2.55;;;0.88;;
67665;SDS011;54448;51.472;-2.574;2024-03-25T06:53:47;0.20;;;0.20;;
67665;SDS011;54448;51.472;-2.574;2024-03-25T06:56:13;0.50;;;0.50;;
67665;SDS011;54448;51.472;-2.574;2024-03-25T06:58:38;1.00;;;0.82;;
67665;SDS011;54448;51.472;-2.574;2024-03-25T07:01:04;0.25;;;0.25;;
67665;SDS011;54448;51.472;-2.574;2024-03-25T07:03:32;1.13;;;0.80;;
67665;SDS011;54448;51.472;-2.574;2024-03-25T07:05:57;0.13;;;0.13;;
67665;SDS011;54448;51.472;-2.574;2024-03-25T07:08:25;0.22;;;0.22;;
67665;SDS011;54448;51.472;-2.574;2024-03-25T07:10:55;0.43;;;0.38;;
67665;SDS011;54448;51.472;-2.574;2024-03-25T07:13:21;6.00;;;1.10;;
67665;SDS011;54448;51.472;-2.574;2024-03-25T07:15:46;9.05;;;1.80;;
67665;SDS011;54448;51.472;-2.574;2024-03-25T07:18:12;3.58;;;1.50;;
67665;SDS011;54448;51.472;-2.574;2024-03-25T07:20:40;4.72;;;0.77;;
67665;SDS011;54448;51.472;-2.574;2024-03-25T07:23:06;0.38;;;0.28;;
67665;SDS011;54448;51.472;-2.574;2024-03-25T07:25:31;7.82;;;1.73;;
67665;SDS011;54448;51.472;-2.574;2024-03-25T07:27:57;11.90;;;2.33;;
67665;SDS011;54448;51.472;-2.574;2024-03-25T07:30:22;5.15;;;1.67;;
67665;SDS011;54448;51.472;-2.574;2024-03-25T07:32:50;12.10;;;1.80;;
67665;SDS011;54448;51.472;-2.574;2024-03-25T07:35:16;6.63;;;0.73;;
67665;SDS011;54448;51.472;-2.574;2024-03-25T07:37:42;1.75;;;1.00;;
67665;SDS011;54448;51.472;-2.574;2024-03-25T07:40:08;3.15;;;0.95;;
67665;SDS011;54448;51.472;-2.574;2024-03-25T07:42:37;5.93;;;1.75;;
67665;SDS011;54448;51.472;-2.574;2024-03-25T07:45:02;4.45;;;1.42;;
67665;SDS011;54448;51.472;-2.574;2024-03-25T07:47:30;9.52;;;1.55;;
67665;SDS011;54448;51.472;-2.574;2024-03-25T07:49:55;7.03;;;2.00;;
67665;SDS011;54448;51.472;-2.574;2024-03-25T07:52:20;6.25;;;1.90;;
67665;SDS011;54448;51.472;-2.574;2024-03-25T07:54:46;0.82;;;0.40;;
67665;SDS011;54448;51.472;-2.574;2024-03-25T07:57:12;10.23;;;2.20;;
67665;SDS011;54448;51.472;-2.574;2024-03-25T07:59:37;5.18;;;1.85;;
67665;SDS011;54448;51.472;-2.574;2024-03-25T08:02:03;2.63;;;1.10;;
67665;SDS011;54448;51.472;-2.574;2024-03-25T08:04:28;5.95;;;1.30;;
67665;SDS011;54448;51.472;-2.574;2024-03-25T08:06:54;5.35;;;1.90;;
67665;SDS011;54448;51.472;-2.574;2024-03-25T08:09:20;12.13;;;1.73;;
67665;SDS011;54448;51.472;-2.574;2024-03-25T08:11:45;2.10;;;0.47;;
67665;SDS011;54448;51.472;-2.574;2024-03-25T08:14:10;5.07;;;1.70;;
67665;SDS011;54448;51.472;-2.574;2024-03-25T08:16:36;5.80;;;2.70;;
67665;SDS011;54448;51.472;-2.574;2024-03-25T08:19:01;4.78;;;1.38;;
67665;SDS011;54448;51.472;-2.574;2024-03-25T08:21:27;3.40;;;0.77;;
67665;SDS011;54448;51.472;-2.574;2024-03-25T08:23:53;17.45;;;2.70;;
67665;SDS011;54448;51.472;-2.574;2024-03-25T08:26:18;8.32;;;2.35;;
67665;SDS011;54448;51.472;-2.574;2024-03-25T08:28:43;11.45;;;1.88;;
67665;SDS011;54448;51.472;-2.574;2024-03-25T08:31:09;11.50;;;1.80;;
67665;SDS011;54448;51.472;-2.574;2024-03-25T08:33:34;1.85;;;0.80;;
67665;SDS011;54448;51.472;-2.574;2024-03-25T08:36:00;1.42;;;0.70;;
67665;SDS011;54448;51.472;-2.574;2024-03-25T08:38:25;0.40;;;0.40;;
67665;SDS011;54448;51.472;-2.574;2024-03-25T08:40:51;7.47;;;1.13;;
67665;SDS011;54448;51.472;-2.574;2024-03-25T08:43:16;9.10;;;1.40;;
67665;SDS011;54448;51.472;-2.574;2024-03-25T08:45:43;6.32;;;2.05;;
67665;SDS011;54448;51.472;-2.574;2024-03-25T08:48:09;7.85;;;1.65;;
67665;SDS011;54448;51.472;-2.574;2024-03-25T08:50:34;7.60;;;1.17;;
67665;SDS011;54448;51.472;-2.574;2024-03-25T08:53:00;8.15;;;2.13;;
67665;SDS011;54448;51.472;-2.574;2024-03-25T08:55:26;0.10;;;0.10;;
67665;SDS011;54448;51.472;-2.574;2024-03-25T08:57:52;7.88;;;2.42;;
67665;SDS011;54448;51.472;-2.574;2024-03-25T09:00:17;19.27;;;3.08;;
67665;SDS011;54448;51.472;-2.574;2024-03-25T09:02:43;7.05;;;3.10;;
67665;SDS011;54448;51.472;-2.574;2024-03-25T09:05:09;4.55;;;1.17;;
67665;SDS011;54448;51.472;-2.574;2024-03-25T09:07:35;25.45;;;2.03;;
67665;SDS011;54448;51.472;-2.574;2024-03-25T09:10:00;13.93;;;2.58;;
67665;SDS011;54448;51.472;-2.574;2024-03-25T09:12:44;6.32;;;1.48;;
67665;SDS011;54448;51.472;-2.574;2024-03-25T09:15:10;13.77;;;2.28;;
67665;SDS011;54448;51.472;-2.574;2024-03-25T09:17:35;11.10;;;3.03;;
67665;SDS011;54448;51.472;-2.574;2024-03-25T09:20:01;5.20;;;1.52;;
67665;SDS011;54448;51.472;-2.574;2024-03-25T09:22:41;6.13;;;1.75;;
67665;SDS011;54448;51.472;-2.574;2024-03-25T09:25:07;3.05;;;1.00;;
67665;SDS011;54448;51.472;-2.574;2024-03-25T09:27:33;2.38;;;1.10;;
67665;SDS011;54448;51.472;-2.574;2024-03-25T09:29:58;8.13;;;2.60;;
67665;SDS011;54448;51.472;-2.574;2024-03-25T09:32:24;9.40;;;1.27;;
67665;SDS011;54448;51.472;-2.574;2024-03-25T09:34:50;9.63;;;1.92;;
67665;SDS011;54448;51.472;-2.574;2024-03-25T09:37:17;3.90;;;1.00;;
67665;SDS011;54448;51.472;-2.574;2024-03-25T09:39:42;5.88;;;1.15;;
67665;SDS011;54448;51.472;-2.574;2024-03-25T09:42:08;10.30;;;2.25;;
67665;SDS011;54448;51.472;-2.574;2024-03-25T09:44:33;7.40;;;1.73;;
67665;SDS011;54448;51.472;-2.574;2024-03-25T09:46:59;7.20;;;2.03;;
67665;SDS011;54448;51.472;-2.574;2024-03-25T09:49:25;15.60;;;2.70;;
67665;SDS011;54448;51.472;-2.574;2024-03-25T09:51:52;16.73;;;2.13;;
67665;SDS011;54448;51.472;-2.574;2024-03-25T09:54:17;10.05;;;1.55;;
67665;SDS011;54448;51.472;-2.574;2024-03-25T09:56:43;9.25;;;2.50;;
67665;SDS011;54448;51.472;-2.574;2024-03-25T09:59:08;0.57;;;0.50;;
67665;SDS011;54448;51.472;-2.574;2024-03-25T10:01:34;7.07;;;1.45;;
67665;SDS011;54448;51.472;-2.574;2024-03-25T10:03:59;16.27;;;1.25;;
67665;SDS011;54448;51.472;-2.574;2024-03-25T10:06:27;12.05;;;1.95;;
67665;SDS011;54448;51.472;-2.574;2024-03-25T10:09:04;18.95;;;2.47;;
67665;SDS011;54448;51.472;-2.574;2024-03-25T10:11:30;3.72;;;1.92;;
67665;SDS011;54448;51.472;-2.574;2024-03-25T10:14:00;4.72;;;1.45;;
67665;SDS011;54448;51.472;-2.574;2024-03-25T10:16:30;4.80;;;1.15;;
67665;SDS011;54448;51.472;-2.574;2024-03-25T10:18:55;3.33;;;0.98;;
67665;SDS011;54448;51.472;-2.574;2024-03-25T10:21:21;6.88;;;2.00;;
67665;SDS011;54448;51.472;-2.574;2024-03-25T10:23:47;0.98;;;0.60;;
67665;SDS011;54448;51.472;-2.574;2024-03-25T10:26:30;7.15;;;1.65;;
67665;SDS011;54448;51.472;-2.574;2024-03-25T10:29:03;8.85;;;1.05;;
67665;SDS011;54448;51.472;-2.574;2024-03-25T10:31:30;21.95;;;1.83;;
67665;SDS011;54448;51.472;-2.574;2024-03-25T10:33:55;5.97;;;1.42;;
67665;SDS011;54448;51.472;-2.574;2024-03-25T10:36:21;1.60;;;0.90;;
67665;SDS011;54448;51.472;-2.574;2024-03-25T10:38:48;8.45;;;2.63;;
67665;SDS011;54448;51.472;-2.574;2024-03-25T10:41:16;6.60;;;2.33;;
67665;SDS011;54448;51.472;-2.574;2024-03-25T10:43:46;9.82;;;1.55;;
67665;SDS011;54448;51.472;-2.574;2024-03-25T10:46:13;7.78;;;2.13;;
67665;SDS011;54448;51.472;-2.574;2024-03-25T10:48:42;7.80;;;1.45;;
67665;SDS011;54448;51.472;-2.574;2024-03-25T10:51:11;3.00;;;1.17;;
67665;SDS011;54448;51.472;-2.574;2024-03-25T10:53:38;2.78;;;0.95;;
67665;SDS011;54448;51.472;-2.574;2024-03-25T10:56:04;12.63;;;1.95;;
67665;SDS011;54448;51.472;-2.574;2024-03-25T10:58:30;10.90;;;1.52;;
67665;SDS011;54448;51.472;-2.574;2024-03-25T11:00:56;6.05;;;0.80;;
67665;SDS011;54448;51.472;-2.574;2024-03-25T11:03:22;3.05;;;1.05;;
67665;SDS011;54448;51.472;-2.574;2024-03-25T11:05:48;9.70;;;1.27;;
67665;SDS011;54448;51.472;-2.574;2024-03-25T11:08:15;2.28;;;0.98;;
67665;SDS011;54448;51.472;-2.574;2024-03-25T11:10:45;7.38;;;0.73;;
67665;SDS011;54448;51.472;-2.574;2024-03-25T11:13:16;16.30;;;2.45;;
67665;SDS011;54448;51.472;-2.574;2024-03-25T11:15:43;5.55;;;1.38;;
67665;SDS011;54448;51.472;-2.574;2024-03-25T11:18:10;5.65;;;1.25;;
67665;SDS011;54448;51.472;-2.574;2024-03-25T11:20:37;5.97;;;2.25;;
67665;SDS011;54448;51.472;-2.574;2024-03-25T11:23:07;10.73;;;1.50;;
67665;SDS011;54448;51.472;-2.574;2024-03-25T11:25:36;16.20;;;1.50;;
67665;SDS011;54448;51.472;-2.574;2024-03-25T11:28:03;10.45;;;1.20;;
67665;SDS011;54448;51.472;-2.574;2024-03-25T11:30:29;5.20;;;1.05;;
67665;SDS011;54448;51.472;-2.574;2024-03-25T11:32:56;2.17;;;0.22;;
67665;SDS011;54448;51.472;-2.574;2024-03-25T11:35:22;1.55;;;0.77;;
67665;SDS011;54448;51.472;-2.574;2024-03-25T11:37:48;16.20;;;1.95;;
67665;SDS011;54448;51.472;-2.574;2024-03-25T11:40:15;3.83;;;1.70;;
67665;SDS011;54448;51.472;-2.574;2024-03-25T11:42:41;9.50;;;1.15;;
67665;SDS011;54448;51.472;-2.574;2024-03-25T11:45:10;4.97;;;0.75;;
67665;SDS011;54448;51.472;-2.574;2024-03-25T11:47:40;2.00;;;0.70;;
67665;SDS011;54448;51.472;-2.574;2024-03-25T11:50:07;6.43;;;0.90;;
67665;SDS011;54448;51.472;-2.574;2024-03-25T11:52:34;5.10;;;1.38;;
67665;SDS011;54448;51.472;-2.574;2024-03-25T11:54:59;10.07;;;1.35;;
67665;SDS011;54448;51.472;-2.574;2024-03-25T11:57:24;10.35;;;1.63;;
67665;SDS011;54448;51.472;-2.574;2024-03-25T11:59:50;0.13;;;0.13;;
67665;SDS011;54448;51.472;-2.574;2024-03-25T12:02:15;1.85;;;1.20;;
67665;SDS011;54448;51.472;-2.574;2024-03-25T12:04:44;0.30;;;0.30;;
67665;SDS011;54448;51.472;-2.574;2024-03-25T12:07:13;7.03;;;1.40;;
67665;SDS011;54448;51.472;-2.574;2024-03-25T12:09:39;4.15;;;0.70;;
67665;SDS011;54448;51.472;-2.574;2024-03-25T12:12:24;6.88;;;1.67;;
67665;SDS011;54448;51.472;-2.574;2024-03-25T12:14:50;7.05;;;1.63;;
67665;SDS011;54448;51.472;-2.574;2024-03-25T12:17:16;9.50;;;1.45;;
67665;SDS011;54448;51.472;-2.574;2024-03-25T12:19:41;10.98;;;1.70;;
67665;SDS011;54448;51.472;-2.574;2024-03-25T12:22:07;26.17;;;2.45;;
67665;SDS011;54448;51.472;-2.574;2024-03-25T12:24:33;16.65;;;2.15;;
67665;SDS011;54448;51.472;-2.574;2024-03-25T12:26:58;7.25;;;1.85;;
67665;SDS011;54448;51.472;-2.574;2024-03-25T12:29:24;9.85;;;1.92;;
67665;SDS011;54448;51.472;-2.574;2024-03-25T12:31:53;11.93;;;0.93;;
67665;SDS011;54448;51.472;-2.574;2024-03-25T12:34:22;23.38;;;1.50;;
67665;SDS011;54448;51.472;-2.574;2024-03-25T12:36:50;2.75;;;1.48;;
67665;SDS011;54448;51.472;-2.574;2024-03-25T12:39:16;14.93;;;2.22;;
67665;SDS011;54448;51.472;-2.574;2024-03-25T12:41:45;17.90;;;2.42;;
67665;SDS011;54448;51.472;-2.574;2024-03-25T12:44:12;9.50;;;2.95;;
67665;SDS011;54448;51.472;-2.574;2024-03-25T12:46:38;7.53;;;2.15;;
67665;SDS011;54448;51.472;-2.574;2024-03-25T12:49:04;9.23;;;1.67;;
67665;SDS011;54448;51.472;-2.574;2024-03-25T12:51:33;5.47;;;2.28;;
67665;SDS011;54448;51.472;-2.574;2024-03-25T12:53:58;6.60;;;1.20;;
67665;SDS011;54448;51.472;-2.574;2024-03-25T12:56:24;6.07;;;2.22;;
67665;SDS011;54448;51.472;-2.574;2024-03-25T12:58:49;9.50;;;2.30;;
67665;SDS011;54448;51.472;-2.574;2024-03-25T13:01:15;13.18;;;2.55;;
67665;SDS011;54448;51.472;-2.574;2024-03-25T13:03:40;19.55;;;2.80;;
67665;SDS011;54448;51.472;-2.574;2024-03-25T13:06:07;6.50;;;1.25;;
67665;SDS011;54448;51.472;-2.574;2024-03-25T13:08:32;4.25;;;1.42;;
67665;SDS011;54448;51.472;-2.574;2024-03-25T13:10:58;1.02;;;0.75;;
67665;SDS011;54448;51.472;-2.574;2024-03-25T13:13:24;10.88;;;2.95;;
67665;SDS011;54448;51.472;-2.574;2024-03-25T13:15:49;5.47;;;2.40;;
67665;SDS011;54448;51.472;-2.574;2024-03-25T13:18:14;22.83;;;3.17;;
67665;SDS011;54448;51.472;-2.574;2024-03-25T13:20:40;22.48;;;4.80;;
67665;SDS011;54448;51.472;-2.574;2024-03-25T13:23:05;25.88;;;4.82;;
67665;SDS011;54448;51.472;-2.574;2024-03-25T13:25:31;13.50;;;2.88;;
67665;SDS011;54448;51.472;-2.574;2024-03-25T13:27:56;22.60;;;4.35;;
67665;SDS011;54448;51.472;-2.574;2024-03-25T13:30:22;25.63;;;3.55;;
67665;SDS011;54448;51.472;-2.574;2024-03-25T13:32:50;12.50;;;3.55;;
67665;SDS011;54448;51.472;-2.574;2024-03-25T13:35:16;9.48;;;3.42;;
67665;SDS011;54448;51.472;-2.574;2024-03-25T13:37:41;21.00;;;4.75;;
67665;SDS011;54448;51.472;-2.574;2024-03-25T13:40:07;24.45;;;3.80;;
67665;SDS011;54448;51.472;-2.574;2024-03-25T13:42:34;15.45;;;3.75;;
67665;SDS011;54448;51.472;-2.574;2024-03-25T13:44:59;16.52;;;3.22;;
67665;SDS011;54448;51.472;-2.574;2024-03-25T13:47:25;20.50;;;3.28;;
67665;SDS011;54448;51.472;-2.574;2024-03-25T13:50:02;19.63;;;4.28;;
67665;SDS011;54448;51.472;-2.574;2024-03-25T13:52:28;17.40;;;4.05;;
67665;SDS011;54448;51.472;-2.574;2024-03-25T13:54:53;7.05;;;2.25;;
67665;SDS011;54448;51.472;-2.574;2024-03-25T13:57:18;5.13;;;1.73;;
67665;SDS011;54448;51.472;-2.574;2024-03-25T13:59:44;14.63;;;2.72;;
67665;SDS011;54448;51.472;-2.574;2024-03-25T14:02:09;11.10;;;2.15;;
67665;SDS011;54448;51.472;-2.574;2024-03-25T14:04:34;19.10;;;2.60;;
67665;SDS011;54448;51.472;-2.574;2024-03-25T14:07:00;18.88;;;3.33;;
67665;SDS011;54448;51.472;-2.574;2024-03-25T14:09:25;9.68;;;2.50;;
67665;SDS011;54448;51.472;-2.574;2024-03-25T14:11:51;11.55;;;1.65;;
67665;SDS011;54448;51.472;-2.574;2024-03-25T14:14:16;8.23;;;1.73;;
67665;SDS011;54448;51.472;-2.574;2024-03-25T14:16:42;20.30;;;1.90;;
67665;SDS011;54448;51.472;-2.574;2024-03-25T14:19:07;15.98;;;2.30;;
67665;SDS011;54448;51.472;-2.574;2024-03-25T14:21:32;11.85;;;1.92;;
67665;SDS011;54448;51.472;-2.574;2024-03-25T14:23:58;1.02;;;1.00;;
67665;SDS011;54448;51.472;-2.574;2024-03-25T14:26:23;23.15;;;2.42;;